createdAt,value
2022-09-07T00:02:22.439Z,4.23
2022-09-07T00:04:49.196Z,4.50
2022-09-07T00:07:15.931Z,4.47
2022-09-07T00:09:42.671Z,4.30
2022-09-07T00:12:09.925Z,4.43
2022-09-07T00:14:36.731Z,5.37
2022-09-07T00:17:03.529Z,4.90
2022-09-07T00:19:30.332Z,4.53
2022-09-07T00:21:57.031Z,4.40
2022-09-07T00:24:23.916Z,5.77
2022-09-07T00:26:50.627Z,4.80
2022-09-07T00:29:17.333Z,5.17
2022-09-07T00:31:44.161Z,4.43
2022-09-07T00:34:11.152Z,5.13
2022-09-07T00:36:37.895Z,4.80
2022-09-07T00:39:05.887Z,5.43
2022-09-07T00:41:32.951Z,4.97
2022-09-07T00:44:38.157Z,5.20
2022-09-07T00:47:16.040Z,4.77
2022-09-07T00:49:45.750Z,4.60
2022-09-07T00:52:13.404Z,4.70
2022-09-07T00:54:45.155Z,4.70
2022-09-07T00:57:12.488Z,4.37
2022-09-07T00:59:45.721Z,4.70
2022-09-07T01:02:15.787Z,4.20
2022-09-07T01:04:43.731Z,3.83
2022-09-07T01:07:10.692Z,4.20
2022-09-07T01:09:38.344Z,5.13
2022-09-07T01:12:05.747Z,4.30
2022-09-07T01:14:41.033Z,4.00
2022-09-07T01:17:38.452Z,4.07
2022-09-07T01:20:42.795Z,4.00
2022-09-07T01:23:27.609Z,3.57
2022-09-07T01:26:18.408Z,3.63
2022-09-07T01:28:49.513Z,3.60
2022-09-07T01:31:25.397Z,3.80
2022-09-07T01:34:20.439Z,3.50
2022-09-07T01:37:14.439Z,2.70
2022-09-07T01:39:51.497Z,3.40
2022-09-07T01:42:23.624Z,2.97
2022-09-07T01:44:56.033Z,3.33
2022-09-07T01:47:39.985Z,3.30
2022-09-07T01:50:16.908Z,3.17
2022-09-07T01:53:01.208Z,3.23
2022-09-07T01:55:42.664Z,3.50
2022-09-07T01:58:19.271Z,3.57
2022-09-07T02:00:50.970Z,3.43
2022-09-07T02:03:30.884Z,3.13
2022-09-07T02:06:05.268Z,3.67
2022-09-07T02:08:55.574Z,3.87
2022-09-07T02:11:29.088Z,4.17
2022-09-07T02:14:01.414Z,4.03
2022-09-07T02:16:30.076Z,4.80
2022-09-07T02:19:02.751Z,4.53
2022-09-07T02:21:34.783Z,3.87
2022-09-07T02:24:07.233Z,3.87
2022-09-07T02:26:37.491Z,3.80
2022-09-07T02:29:04.438Z,3.93
2022-09-07T02:31:31.366Z,3.83
2022-09-07T02:33:58.296Z,4.57
2022-09-07T02:36:28.287Z,4.00
2022-09-07T02:38:55.009Z,3.87
2022-09-07T02:41:34.994Z,3.90
2022-09-07T02:44:04.561Z,3.53
2022-09-07T02:46:40.503Z,3.77
2022-09-07T02:49:24.443Z,3.33
2022-09-07T02:52:12.336Z,4.03
2022-09-07T02:54:46.131Z,3.70
2022-09-07T02:57:27.418Z,3.30
2022-09-07T03:00:07.225Z,4.10
2022-09-07T03:03:09.412Z,3.33
2022-09-07T03:05:41.769Z,3.53
2022-09-07T03:08:31.515Z,3.57
2022-09-07T03:10:59.181Z,3.40
2022-09-07T03:13:28.954Z,3.37
2022-09-07T03:15:56.813Z,3.30
2022-09-07T03:18:25.436Z,3.13
2022-09-07T03:20:52.631Z,3.70
2022-09-07T03:23:19.394Z,3.87
2022-09-07T03:25:47.623Z,3.37
2022-09-07T03:28:14.489Z,3.40
2022-09-07T03:30:47.123Z,3.43
2022-09-07T03:33:17.760Z,3.33
2022-09-07T03:35:45.519Z,3.20
2022-09-07T03:38:12.704Z,3.53
2022-09-07T03:40:39.620Z,3.80
2022-09-07T03:43:06.541Z,4.07
2022-09-07T03:45:33.713Z,3.50
2022-09-07T03:48:00.464Z,3.33
2022-09-07T03:50:27.248Z,3.50
2022-09-07T03:52:53.961Z,3.37
2022-09-07T03:55:21.432Z,3.63
2022-09-07T03:57:48.144Z,3.20
2022-09-07T04:00:15.003Z,3.00
2022-09-07T04:02:42.156Z,3.40
2022-09-07T04:05:09.363Z,3.40
2022-09-07T04:07:36.446Z,3.80
2022-09-07T04:10:04.136Z,2.83
2022-09-07T04:12:30.908Z,3.80
2022-09-07T04:14:57.639Z,2.90
2022-09-07T04:17:24.401Z,3.03
2022-09-07T04:19:51.115Z,3.10
2022-09-07T04:22:17.876Z,3.07
2022-09-07T04:24:44.590Z,3.17
2022-09-07T04:27:11.339Z,2.93
2022-09-07T04:29:38.272Z,2.87
2022-09-07T04:32:05.110Z,2.90
2022-09-07T04:34:31.903Z,3.33
2022-09-07T04:36:58.623Z,3.43
2022-09-07T04:39:25.546Z,3.90
2022-09-07T04:41:52.344Z,3.90
2022-09-07T04:44:19.269Z,4.37
2022-09-07T04:46:45.964Z,4.10
2022-09-07T04:49:12.740Z,3.97
2022-09-07T04:51:42.514Z,4.50
2022-09-07T04:54:10.131Z,4.70
2022-09-07T04:56:37.015Z,4.87
2022-09-07T04:59:04.300Z,4.20
2022-09-07T05:01:31.404Z,4.60
2022-09-07T05:04:01.223Z,4.23
2022-09-07T05:06:28.801Z,4.20
2022-09-07T05:08:55.692Z,4.90
2022-09-07T05:11:28.833Z,4.47
2022-09-07T05:13:58.131Z,4.60
2022-09-07T05:16:25.899Z,4.70
2022-09-07T05:18:54.996Z,5.00
2022-09-07T05:21:25.367Z,5.23
2022-09-07T05:23:53.901Z,5.20
2022-09-07T05:26:22.608Z,5.07
2022-09-07T05:28:50.393Z,5.67
2022-09-07T05:31:20.295Z,5.07
2022-09-07T05:36:39.206Z,4.90
2022-09-07T05:39:07.224Z,5.03
2022-09-07T05:41:33.953Z,5.33
2022-09-07T05:46:48.109Z,5.23
2022-09-07T05:49:14.847Z,5.57
2022-09-07T05:51:41.580Z,4.43
2022-09-07T05:54:08.448Z,5.33
2022-09-07T05:56:36.156Z,5.27
2022-09-07T05:59:03.643Z,5.07
2022-09-07T06:01:30.822Z,6.00
2022-09-07T06:03:57.841Z,5.33
2022-09-07T06:06:24.722Z,6.23
2022-09-07T06:08:53.402Z,5.27
2022-09-07T06:11:22.306Z,6.03
2022-09-07T06:13:49.858Z,5.53
2022-09-07T06:16:18.558Z,6.03
2022-09-07T06:18:48.143Z,5.57
2022-09-07T06:21:18.756Z,5.20
2022-09-07T06:23:46.928Z,5.77
2022-09-07T06:26:15.180Z,5.10
2022-09-07T06:28:49.716Z,5.67
2022-09-07T06:31:20.347Z,6.50
2022-09-07T06:33:48.081Z,6.80
2022-09-07T06:36:20.486Z,6.77
2022-09-07T06:38:47.965Z,6.47
2022-09-07T06:44:07.856Z,7.27
2022-09-07T06:49:21.447Z,8.50
2022-09-07T06:51:48.175Z,8.30
2022-09-07T06:57:08.485Z,8.20
2022-09-07T06:59:35.706Z,8.47
2022-09-07T07:02:02.492Z,9.27
2022-09-07T07:04:29.427Z,9.40
2022-09-07T07:06:56.169Z,10.10
2022-09-07T07:09:23.045Z,10.93
2022-09-07T07:11:49.776Z,9.93
2022-09-07T07:14:17.875Z,10.07
2022-09-07T07:16:45.676Z,10.37
2022-09-07T07:19:12.919Z,9.93
2022-09-07T07:22:05.575Z,10.10
2022-09-07T07:24:26.411Z,9.17
2022-09-07T07:26:53.171Z,10.13
2022-09-07T07:29:21.907Z,10.23
2022-09-07T07:31:49.528Z,9.67
2022-09-07T07:34:16.372Z,10.17
2022-09-07T07:36:43.181Z,10.10
2022-09-07T07:41:59.030Z,11.80
2022-09-07T07:44:28.651Z,12.00
2022-09-07T07:46:55.555Z,11.87
2022-09-07T07:49:22.368Z,11.30
2022-09-07T07:54:36.935Z,11.13
2022-09-07T07:57:05.246Z,11.10
2022-09-07T07:59:32.031Z,11.13
2022-09-07T08:02:04.412Z,11.83
2022-09-07T08:04:35.199Z,12.83
2022-09-07T08:07:08.687Z,13.23
2022-09-07T08:09:41.185Z,11.97
2022-09-07T08:12:09.703Z,13.33
2022-09-07T08:14:40.834Z,13.50
2022-09-07T08:17:09.904Z,14.37
2022-09-07T08:19:36.680Z,15.03
2022-09-07T08:22:03.954Z,15.30
2022-09-07T08:24:34.619Z,16.17
2022-09-07T08:27:01.956Z,16.03
2022-09-07T08:29:32.571Z,15.87
2022-09-07T08:32:01.888Z,14.87
2022-09-07T08:34:28.671Z,15.33
2022-09-07T08:36:55.398Z,16.50
2022-09-07T08:39:22.244Z,16.43
2022-09-07T08:42:01.422Z,17.97
2022-09-07T08:44:31.834Z,21.23
2022-09-07T08:47:40.279Z,19.33
2022-09-07T08:50:33.551Z,22.17
2022-09-07T08:53:19.549Z,18.53
2022-09-07T08:55:51.719Z,17.97
2022-09-07T08:58:49.732Z,18.90
2022-09-07T09:01:31.047Z,20.87
2022-09-07T09:07:15.884Z,16.97
2022-09-07T09:09:55.011Z,18.00
2022-09-07T09:12:37.510Z,16.93
2022-09-07T09:15:33.626Z,15.07
2022-09-07T09:18:17.279Z,17.00
2022-09-07T09:21:02.501Z,16.20
2022-09-07T09:23:37.973Z,16.83
2022-09-07T09:26:12.105Z,13.00
2022-09-07T09:28:39.782Z,14.50
2022-09-07T09:31:06.840Z,15.87
2022-09-07T09:33:33.589Z,13.77
2022-09-07T09:36:02.072Z,13.00
2022-09-07T09:38:40.287Z,12.20
2022-09-07T09:41:12.640Z,13.13
2022-09-07T09:43:45.667Z,12.30
2022-09-07T09:46:34.235Z,13.07
2022-09-07T09:49:06.645Z,11.87
2022-09-07T09:54:42.051Z,10.93
2022-09-07T09:57:16.434Z,10.30
2022-09-07T10:00:01.945Z,12.57
2022-09-07T10:05:40.742Z,12.27
2022-09-07T10:08:24.846Z,11.17
2022-09-07T10:10:52.601Z,10.20
2022-09-07T10:13:35.197Z,10.00
2022-09-07T10:16:09.591Z,9.80
2022-09-07T10:18:41.730Z,9.77
2022-09-07T10:21:26.793Z,9.07
2022-09-07T10:24:15.508Z,7.73
2022-09-07T10:26:47.220Z,8.87
2022-09-07T10:29:29.875Z,8.87
2022-09-07T10:32:09.437Z,8.17
2022-09-07T10:34:52.544Z,6.60
2022-09-07T10:37:27.128Z,6.37
2022-09-07T10:40:31.803Z,7.27
2022-09-07T10:43:21.550Z,7.20
2022-09-07T10:46:01.456Z,5.33
2022-09-07T10:48:45.672Z,5.93
2022-09-07T10:51:43.075Z,5.97
2022-09-07T10:54:36.464Z,5.27
2022-09-07T10:57:27.505Z,5.10
2022-09-07T11:00:21.582Z,4.43
2022-09-07T11:03:25.846Z,4.30
2022-09-07T11:06:08.349Z,3.60
2022-09-07T11:09:17.872Z,3.57
2022-09-07T11:12:04.719Z,3.83
2022-09-07T11:14:54.767Z,3.40
2022-09-07T11:17:26.015Z,3.83
2022-09-07T11:20:17.289Z,3.90
2022-09-07T11:22:49.668Z,3.90
2022-09-07T11:25:33.487Z,4.07
2022-09-07T11:28:13.451Z,3.90
2022-09-07T11:30:49.900Z,3.40
2022-09-07T11:33:25.416Z,3.47
2022-09-07T11:35:59.639Z,3.10
2022-09-07T11:43:28.198Z,2.97
2022-09-07T11:46:04.932Z,2.93
2022-09-07T11:48:39.967Z,3.17
2022-09-07T11:51:12.970Z,3.20
2022-09-07T11:53:45.605Z,2.90
2022-09-07T11:56:20.979Z,2.80
2022-09-07T11:59:11.735Z,3.00
2022-09-07T12:02:02.200Z,3.20
2022-09-07T12:04:54.142Z,3.40
2022-09-07T12:08:04.734Z,3.70
2022-09-07T12:10:55.327Z,3.20
2022-09-07T12:13:32.138Z,3.00
2022-09-07T12:16:19.692Z,3.50
2022-09-07T12:19:11.915Z,3.60
2022-09-07T12:21:53.719Z,3.00
2022-09-07T12:24:41.408Z,3.50
2022-09-07T12:27:20.305Z,3.83
2022-09-07T12:30:10.449Z,3.10
2022-09-07T12:32:54.930Z,3.30
2022-09-07T12:35:31.636Z,3.27
2022-09-07T12:38:05.879Z,3.20
2022-09-07T12:40:33.226Z,2.83
2022-09-07T12:43:15.224Z,3.00
2022-09-07T12:45:44.648Z,3.30
2022-09-07T12:48:17.501Z,3.20
2022-09-07T12:51:06.251Z,2.90
2022-09-07T12:53:48.372Z,3.20
2022-09-07T12:56:36.814Z,2.43
2022-09-07T12:59:38.302Z,2.37
2022-09-07T13:02:18.965Z,2.50
2022-09-07T13:04:52.838Z,3.00
2022-09-07T13:07:34.881Z,2.30
2022-09-07T13:10:04.315Z,2.20
2022-09-07T13:12:55.245Z,2.10
2022-09-07T13:15:41.099Z,2.20
2022-09-07T13:18:28.205Z,2.35
2022-09-07T13:21:07.004Z,2.78
2022-09-07T13:23:37.917Z,2.35
2022-09-07T13:26:09.038Z,2.08
2022-09-07T13:28:54.814Z,2.00
2022-09-07T13:31:30.914Z,2.10
2022-09-07T13:33:57.717Z,2.10
2022-09-07T13:36:40.172Z,2.03
2022-09-07T13:39:12.659Z,1.70
2022-09-07T13:41:49.212Z,2.03
2022-09-07T13:44:25.669Z,1.63
2022-09-07T13:47:11.405Z,1.50
2022-09-07T13:49:56.074Z,1.30
2022-09-07T13:52:38.648Z,1.57
2022-09-07T13:55:26.826Z,1.45
2022-09-07T13:58:17.842Z,1.13
2022-09-07T14:00:56.390Z,1.58
2022-09-07T14:03:27.735Z,1.47
2022-09-07T14:06:22.480Z,1.57
2022-09-07T14:08:52.670Z,1.40
2022-09-07T14:11:28.945Z,1.60
2022-09-07T14:14:29.386Z,1.50
2022-09-07T14:17:04.055Z,1.50
2022-09-07T14:19:38.036Z,1.50
2022-09-07T14:22:22.304Z,1.70
2022-09-07T14:24:57.808Z,1.50
2022-09-07T14:27:30.316Z,1.60
2022-09-07T14:30:24.051Z,1.47
2022-09-07T14:32:53.404Z,1.80
2022-09-07T14:35:22.954Z,1.43
2022-09-07T14:37:50.601Z,1.50
2022-09-07T14:40:25.458Z,1.40
2022-09-07T14:42:54.035Z,1.63
2022-09-07T14:45:23.594Z,1.60
2022-09-07T14:47:52.677Z,1.70
2022-09-07T14:50:21.780Z,1.73
2022-09-07T14:55:43.900Z,1.50
2022-09-07T14:58:13.611Z,1.70
2022-09-07T15:00:43.612Z,1.70
2022-09-07T15:03:28.444Z,2.00
2022-09-07T15:06:01.129Z,1.60
2022-09-07T15:08:40.461Z,2.03
2022-09-07T15:11:35.674Z,1.63
2022-09-07T15:14:08.784Z,1.37
2022-09-07T15:16:39.115Z,1.43
2022-09-07T15:19:18.515Z,1.77
2022-09-07T15:21:45.797Z,1.80
2022-09-07T15:24:12.491Z,2.00
2022-09-07T15:27:04.314Z,1.67
2022-09-07T15:29:32.141Z,1.97
2022-09-07T15:32:04.297Z,1.73
2022-09-07T15:34:32.372Z,1.53
2022-09-07T15:37:00.183Z,1.73
2022-09-07T15:39:34.383Z,1.53
2022-09-07T15:42:59.483Z,1.60
2022-09-07T15:44:50.223Z,1.83
2022-09-07T15:50:05.964Z,1.53
2022-09-07T15:52:32.947Z,1.40
2022-09-07T15:54:59.672Z,1.77
2022-09-07T16:00:14.417Z,1.67
2022-09-07T16:05:31.187Z,1.73
2022-09-07T16:10:53.466Z,1.57
2022-09-07T16:13:20.871Z,1.43
2022-09-07T16:15:48.858Z,1.70
2022-09-07T16:18:17.964Z,1.50
2022-09-07T16:20:45.672Z,1.73
2022-09-07T16:23:15.217Z,1.40
2022-09-07T16:25:43.103Z,1.30
2022-09-07T16:28:10.195Z,1.63
2022-09-07T16:30:40.551Z,1.63
2022-09-07T16:33:07.902Z,1.73
2022-09-07T16:35:34.840Z,2.17
2022-09-07T16:40:50.755Z,1.77
2022-09-07T16:43:17.663Z,1.87
2022-09-07T16:48:32.884Z,1.57
2022-09-07T16:51:02.550Z,1.40
2022-09-07T16:53:31.760Z,1.70
2022-09-07T16:56:09.569Z,1.67
2022-09-07T16:58:38.383Z,1.47
2022-09-07T17:01:06.759Z,1.43
2022-09-07T17:03:34.148Z,1.60
2022-09-07T17:06:01.401Z,1.67
2022-09-07T17:08:28.463Z,1.70
2022-09-07T17:11:00.252Z,1.80
2022-09-07T17:13:27.345Z,1.90
2022-09-07T17:15:54.163Z,1.77
2022-09-07T17:19:28.880Z,1.50
2022-09-07T17:21:07.895Z,1.40
2022-09-07T17:23:44.531Z,1.80
2022-09-07T17:26:19.494Z,1.80
2022-09-07T17:28:49.911Z,1.70
2022-09-07T17:34:13.370Z,1.90
2022-09-07T17:36:40.620Z,1.70
2022-09-07T17:39:16.823Z,1.70
2022-09-07T17:41:45.278Z,2.30
2022-09-07T17:44:12.410Z,1.80
2022-09-07T17:46:39.594Z,1.50
2022-09-07T17:49:10.144Z,1.67
2022-09-07T17:51:37.035Z,1.60
2022-09-07T17:54:10.253Z,1.43
2022-09-07T17:56:38.695Z,1.63
2022-09-07T18:01:54.161Z,2.23
2022-09-07T18:04:21.620Z,1.70
2022-09-07T18:06:48.390Z,1.60
2022-09-07T18:09:15.275Z,1.73
2022-09-07T18:11:45.543Z,1.80
2022-09-07T18:14:14.397Z,1.60
2022-09-07T18:16:41.944Z,1.90
2022-09-07T18:19:08.809Z,1.80
2022-09-07T18:21:37.315Z,1.90
2022-09-07T18:24:07.595Z,1.60
2022-09-07T18:26:38.293Z,2.30
2022-09-07T18:29:10.452Z,2.50
2022-09-07T18:31:45.946Z,2.40
2022-09-07T18:34:12.860Z,2.10
2022-09-07T18:36:43.711Z,2.30
2022-09-07T18:39:10.793Z,2.17
2022-09-07T18:41:40.849Z,1.90
2022-09-07T18:45:27.331Z,2.00
2022-09-07T18:46:54.841Z,2.20
2022-09-07T18:49:21.553Z,1.77
2022-09-07T18:54:34.913Z,2.00
2022-09-07T18:57:01.647Z,2.00
2022-09-07T18:59:29.791Z,2.27
2022-09-07T19:02:01.520Z,2.60
2022-09-07T19:05:49.519Z,2.20
2022-09-07T19:07:17.012Z,2.00
2022-09-07T19:09:43.664Z,2.57
2022-09-07T19:12:10.439Z,1.80
2022-09-07T19:14:37.212Z,1.97
2022-09-07T19:17:03.976Z,1.90
2022-09-07T19:19:30.864Z,1.57
2022-09-07T19:21:58.194Z,2.07
2022-09-07T19:24:25.697Z,2.10
2022-09-07T19:26:55.728Z,2.70
2022-09-07T19:29:25.130Z,3.03
2022-09-07T19:32:06.575Z,1.90
2022-09-07T19:34:38.945Z,2.00
2022-09-07T19:37:07.386Z,1.63
2022-09-07T19:39:34.401Z,2.43
2022-09-07T19:42:03.950Z,2.27
2022-09-07T19:44:31.039Z,2.73
2022-09-07T19:46:57.898Z,2.07
2022-09-07T19:49:24.634Z,1.70
2022-09-07T19:51:51.942Z,1.60
2022-09-07T19:54:19.099Z,1.50
2022-09-07T19:56:45.992Z,2.10
2022-09-07T19:59:13.217Z,1.97
2022-09-07T20:01:40.603Z,2.03
2022-09-07T20:04:13.795Z,2.00
2022-09-07T20:06:42.857Z,1.60
2022-09-07T20:09:10.445Z,1.73
2022-09-07T20:11:37.210Z,2.00
2022-09-07T20:14:04.128Z,2.23
2022-09-07T20:16:33.781Z,2.10
2022-09-07T20:19:00.512Z,1.90
2022-09-07T20:21:27.236Z,2.10
2022-09-07T20:23:53.981Z,2.30
2022-09-07T20:26:21.747Z,2.60
2022-09-07T20:29:05.852Z,3.57
2022-09-07T20:31:41.659Z,2.90
2022-09-07T20:34:09.551Z,2.97
2022-09-07T20:36:36.631Z,2.47
2022-09-07T20:39:04.388Z,2.33
2022-09-07T20:41:33.853Z,2.30
2022-09-07T20:44:03.341Z,2.08
2022-09-07T20:46:30.823Z,3.00
2022-09-07T20:48:58.172Z,3.13
2022-09-07T20:51:25.065Z,2.50
2022-09-07T20:53:51.806Z,2.20
2022-09-07T20:56:23.495Z,2.50
2022-09-07T20:58:57.853Z,2.37
2022-09-07T21:01:24.961Z,2.40
2022-09-07T21:03:54.327Z,2.40
2022-09-07T21:06:22.293Z,2.30
2022-09-07T21:08:50.528Z,2.43
2022-09-07T21:11:20.612Z,2.23
2022-09-07T21:13:47.797Z,2.60
2022-09-07T21:16:16.176Z,2.73
2022-09-07T21:18:44.271Z,2.50
2022-09-07T21:21:20.389Z,2.53
2022-09-07T21:23:48.042Z,2.47
2022-09-07T21:26:14.825Z,3.30
2022-09-07T21:28:41.521Z,2.30
2022-09-07T21:31:09.213Z,2.73
2022-09-07T21:33:37.541Z,2.43
2022-09-07T21:36:12.499Z,2.30
2022-09-07T21:38:40.975Z,2.70
2022-09-07T21:41:13.703Z,2.37
2022-09-07T21:43:40.836Z,2.70
2022-09-07T21:46:16.604Z,2.27
2022-09-07T21:48:45.405Z,2.27
2022-09-07T21:51:13.457Z,2.10
2022-09-07T21:53:40.656Z,2.53
2022-09-07T21:56:12.640Z,2.33
2022-09-07T21:58:40.022Z,2.43
2022-09-07T22:01:16.824Z,2.60
2022-09-07T22:03:48.524Z,2.90
2022-09-07T22:06:15.296Z,2.40
2022-09-07T22:08:42.652Z,3.00
2022-09-07T22:11:12.239Z,2.67
2022-09-07T22:13:39.359Z,2.83
2022-09-07T22:16:07.310Z,2.57
2022-09-07T22:18:34.546Z,2.73
2022-09-07T22:21:03.028Z,2.80
2022-09-07T22:23:31.708Z,2.60
2022-09-07T22:25:58.928Z,3.13
2022-09-07T22:28:26.039Z,2.70
2022-09-07T22:30:54.666Z,2.10
2022-09-07T22:33:21.637Z,2.63
2022-09-07T22:35:48.686Z,2.40
2022-09-07T22:38:15.456Z,2.67
2022-09-07T22:40:42.225Z,2.90
2022-09-07T22:43:08.941Z,2.40
2022-09-07T22:45:35.669Z,2.60
2022-09-07T22:48:02.479Z,2.40
2022-09-07T22:50:29.167Z,2.50
2022-09-07T22:52:55.848Z,2.60
2022-09-07T22:55:22.512Z,2.27
2022-09-07T22:57:49.175Z,2.40
2022-09-07T23:00:16.137Z,2.53
2022-09-07T23:02:42.967Z,2.27
2022-09-07T23:05:10.148Z,2.47
2022-09-07T23:07:36.912Z,2.00
2022-09-07T23:10:03.955Z,2.00
2022-09-07T23:12:31.201Z,1.73
2022-09-07T23:14:57.900Z,2.30
2022-09-07T23:17:24.567Z,2.37
2022-09-07T23:19:51.239Z,2.13
2022-09-07T23:22:18.085Z,2.30
2022-09-07T23:24:44.771Z,2.80
2022-09-07T23:27:11.485Z,2.30
2022-09-07T23:29:38.316Z,2.47
2022-09-07T23:32:05.052Z,2.43
2022-09-07T23:34:31.745Z,2.50
2022-09-07T23:36:58.417Z,2.33
2022-09-07T23:39:25.095Z,2.40
2022-09-07T23:41:51.780Z,2.47
2022-09-07T23:44:18.544Z,2.50
2022-09-07T23:46:45.279Z,2.40
2022-09-07T23:49:11.981Z,3.40
2022-09-07T23:51:38.821Z,3.00
2022-09-07T23:54:05.631Z,2.50
2022-09-07T23:56:32.630Z,2.60
2022-09-07T23:58:59.320Z,3.13
